createdAt,value
2019-03-15T00:01:00.816Z,14.00
2019-03-15T00:03:27.848Z,13.70
2019-03-15T00:05:55.224Z,14.78
2019-03-15T00:08:23.483Z,19.95
2019-03-15T00:10:50.534Z,11.90
2019-03-15T00:13:17.578Z,16.17
2019-03-15T00:15:44.631Z,13.22
2019-03-15T00:18:11.917Z,13.80
2019-03-15T00:20:38.977Z,12.70
2019-03-15T00:23:06.285Z,11.12
2019-03-15T00:25:33.341Z,16.23
2019-03-15T00:28:00.384Z,13.18
2019-03-15T00:30:27.448Z,15.80
2019-03-15T00:32:54.784Z,15.60
2019-03-15T00:35:21.894Z,13.35
2019-03-15T00:37:48.954Z,16.75
2019-03-15T00:40:16.747Z,14.23
2019-03-15T00:42:44.117Z,14.53
2019-03-15T00:45:11.166Z,16.15
2019-03-15T00:47:38.216Z,10.95
2019-03-15T00:50:05.552Z,14.25
2019-03-15T00:52:32.907Z,14.60
2019-03-15T00:55:00.482Z,10.60
2019-03-15T00:57:27.566Z,15.28
2019-03-15T00:59:54.872Z,14.18
2019-03-15T01:02:22.228Z,11.63
2019-03-15T01:04:49.474Z,15.83
2019-03-15T01:07:16.527Z,12.20
2019-03-15T01:09:43.881Z,17.57
2019-03-15T01:12:11.190Z,14.33
2019-03-15T01:14:38.228Z,13.10
2019-03-15T01:17:05.637Z,14.60
2019-03-15T01:19:32.676Z,14.43
2019-03-15T01:22:00.772Z,15.40
2019-03-15T01:24:28.110Z,14.85
2019-03-15T01:26:56.128Z,12.58
2019-03-15T01:29:23.452Z,14.87
2019-03-15T01:31:50.795Z,18.90
2019-03-15T01:34:18.147Z,14.07
2019-03-15T01:36:45.442Z,11.03
2019-03-15T01:39:12.767Z,7.70
2019-03-15T01:41:40.111Z,11.43
2019-03-15T01:44:07.481Z,10.68
2019-03-15T01:46:34.822Z,14.25
2019-03-15T01:49:02.179Z,13.58
2019-03-15T01:51:29.215Z,13.72
2019-03-15T01:53:56.579Z,17.82
2019-03-15T01:56:25.128Z,21.05
2019-03-15T01:58:52.185Z,13.08
2019-03-15T02:01:19.582Z,19.62
2019-03-15T02:03:46.937Z,13.80
2019-03-15T02:06:13.974Z,16.70
2019-03-15T02:08:41.323Z,12.45
2019-03-15T02:11:08.677Z,15.58
2019-03-15T02:13:36.095Z,16.97
2019-03-15T02:16:03.088Z,11.93
2019-03-15T02:18:30.453Z,14.68
2019-03-15T02:20:57.577Z,16.95
2019-03-15T02:23:24.621Z,14.40
2019-03-15T02:25:52.037Z,10.45
2019-03-15T02:28:19.346Z,16.02
2019-03-15T02:30:46.699Z,15.68
2019-03-15T02:33:13.827Z,19.15
2019-03-15T02:35:41.208Z,18.12
2019-03-15T02:38:08.577Z,8.10
2019-03-15T02:40:35.611Z,15.72
2019-03-15T02:43:02.671Z,16.32
2019-03-15T02:45:30.013Z,12.93
2019-03-15T02:47:57.380Z,17.17
2019-03-15T02:50:24.400Z,20.95
2019-03-15T02:52:51.768Z,17.75
2019-03-15T02:55:18.812Z,14.83
2019-03-15T02:57:46.192Z,12.55
2019-03-15T03:00:13.989Z,15.72
2019-03-15T03:02:41.599Z,11.93
2019-03-15T03:05:08.632Z,11.75
2019-03-15T03:07:35.671Z,13.53
2019-03-15T03:10:02.732Z,10.15
2019-03-15T03:12:30.918Z,14.83
2019-03-15T03:14:58.366Z,14.93
2019-03-15T03:17:26.015Z,11.57
2019-03-15T03:19:54.100Z,16.05
2019-03-15T03:22:21.122Z,14.33
2019-03-15T03:24:48.172Z,14.98
2019-03-15T03:27:15.565Z,14.20
2019-03-15T03:29:42.612Z,12.70
2019-03-15T03:32:09.648Z,10.58
2019-03-15T03:34:36.704Z,16.73
2019-03-15T03:37:03.729Z,9.90
2019-03-15T03:39:31.109Z,12.55
2019-03-15T03:41:58.468Z,16.27
2019-03-15T03:44:25.508Z,14.33
2019-03-15T03:46:52.884Z,17.65
2019-03-15T03:49:19.937Z,13.70
2019-03-15T03:51:46.970Z,18.92
2019-03-15T03:54:14.317Z,10.55
2019-03-15T03:56:41.595Z,10.08
2019-03-15T03:59:08.885Z,17.65
2019-03-15T04:01:36.277Z,11.20
2019-03-15T04:04:03.330Z,12.75
2019-03-15T04:06:30.411Z,21.90
2019-03-15T04:08:57.460Z,12.82
2019-03-15T04:11:24.780Z,20.70
2019-03-15T04:13:51.826Z,13.68
2019-03-15T04:16:19.131Z,14.80
2019-03-15T04:18:46.177Z,12.03
2019-03-15T04:21:13.217Z,16.95
2019-03-15T04:23:40.631Z,13.85
2019-03-15T04:26:08.645Z,18.50
2019-03-15T04:28:35.944Z,17.40
2019-03-15T04:31:03.309Z,10.35
2019-03-15T04:33:30.441Z,13.93
2019-03-15T04:35:57.832Z,15.95
2019-03-15T04:38:25.169Z,12.90
2019-03-15T04:40:52.523Z,17.15
2019-03-15T04:43:19.902Z,18.40
2019-03-15T04:45:47.254Z,9.45
2019-03-15T04:48:14.590Z,16.42
2019-03-15T04:50:41.902Z,11.03
2019-03-15T04:53:09.317Z,10.03
2019-03-15T04:55:42.601Z,16.95
2019-03-15T04:58:09.949Z,16.35
2019-03-15T05:00:37.304Z,14.07
2019-03-15T05:03:04.661Z,15.50
2019-03-15T05:05:31.720Z,14.00
2019-03-15T05:07:58.757Z,14.68
2019-03-15T05:10:25.809Z,14.07
2019-03-15T05:12:58.383Z,13.75
2019-03-15T05:15:25.757Z,15.93
2019-03-15T05:17:54.217Z,11.68
2019-03-15T05:20:21.581Z,13.03
2019-03-15T05:22:49.154Z,16.02
2019-03-15T05:25:16.204Z,10.03
2019-03-15T05:27:43.236Z,19.98
2019-03-15T05:30:10.590Z,12.80
2019-03-15T05:32:40.090Z,15.28
2019-03-15T05:35:07.141Z,11.30
2019-03-15T05:37:34.178Z,20.12
2019-03-15T05:40:01.543Z,16.07
2019-03-15T05:42:28.581Z,13.65
2019-03-15T05:44:55.947Z,13.78
2019-03-15T05:47:22.997Z,15.88
2019-03-15T05:49:50.270Z,16.85
2019-03-15T05:52:17.318Z,18.67
2019-03-15T05:54:44.653Z,14.40
2019-03-15T05:57:11.960Z,13.78
2019-03-15T05:59:38.997Z,17.50
2019-03-15T06:02:06.052Z,17.05
2019-03-15T06:04:33.377Z,17.62
2019-03-15T06:07:00.424Z,18.62
2019-03-15T06:09:27.459Z,15.03
2019-03-15T06:11:54.679Z,15.20
2019-03-15T06:14:21.694Z,17.10
2019-03-15T06:16:48.743Z,13.62
2019-03-15T06:19:16.018Z,13.18
2019-03-15T06:21:43.408Z,25.37
2019-03-15T06:24:10.790Z,15.10
2019-03-15T06:26:38.097Z,19.15
2019-03-15T06:29:05.475Z,18.80
2019-03-15T06:31:32.831Z,17.87
2019-03-15T06:34:00.178Z,12.68
2019-03-15T06:36:27.229Z,10.13
2019-03-15T06:38:54.581Z,12.20
2019-03-15T06:41:21.880Z,14.35
2019-03-15T06:43:49.208Z,8.20
2019-03-15T06:46:16.508Z,14.78
2019-03-15T06:48:45.250Z,12.43
2019-03-15T06:51:12.793Z,11.57
2019-03-15T06:53:39.913Z,10.30
2019-03-15T06:56:06.946Z,7.87
2019-03-15T06:58:34.246Z,13.25
2019-03-15T07:01:01.616Z,9.58
2019-03-15T07:03:28.972Z,10.18
2019-03-15T07:05:56.001Z,8.43
2019-03-15T07:08:23.354Z,7.95
2019-03-15T07:10:50.708Z,4.72
2019-03-15T07:13:18.066Z,6.62
2019-03-15T07:15:45.095Z,9.35
2019-03-15T07:18:12.145Z,11.85
2019-03-15T07:20:39.182Z,6.33
2019-03-15T07:23:06.478Z,7.12
2019-03-15T07:25:33.836Z,6.40
2019-03-15T07:28:01.175Z,6.80
2019-03-15T07:30:28.206Z,5.62
2019-03-15T07:32:56.474Z,3.35
2019-03-15T07:35:24.265Z,6.90
2019-03-15T07:37:51.387Z,5.83
2019-03-15T07:40:18.550Z,4.67
2019-03-15T07:42:45.551Z,6.28
2019-03-15T07:45:12.583Z,4.47
2019-03-15T07:47:39.911Z,3.70
2019-03-15T07:50:06.943Z,3.25
2019-03-15T07:52:34.312Z,3.80
2019-03-15T07:55:01.699Z,2.95
2019-03-15T07:57:28.969Z,2.87
2019-03-15T07:59:56.275Z,3.27
2019-03-15T08:02:23.629Z,5.50
2019-03-15T08:04:51.917Z,2.25
2019-03-15T08:07:20.182Z,1.90
2019-03-15T08:09:51.062Z,1.55
2019-03-15T08:12:16.917Z,4.85
2019-03-15T08:14:43.946Z,2.10
2019-03-15T08:17:10.992Z,3.00
2019-03-15T08:19:38.311Z,2.70
2019-03-15T08:22:05.356Z,2.50
2019-03-15T08:24:32.387Z,4.92
2019-03-15T08:26:59.415Z,5.22
2019-03-15T08:29:26.793Z,2.25
2019-03-15T08:31:54.269Z,3.37
2019-03-15T08:34:21.602Z,3.47
2019-03-15T08:36:48.635Z,1.70
2019-03-15T08:39:15.681Z,3.02
2019-03-15T08:41:43.053Z,2.80
2019-03-15T08:44:10.454Z,1.92
2019-03-15T08:46:37.766Z,1.72
2019-03-15T08:49:04.816Z,1.12
2019-03-15T08:51:32.169Z,1.75
2019-03-15T08:53:59.520Z,4.53
2019-03-15T08:56:26.892Z,1.40
2019-03-15T08:58:54.231Z,1.62
2019-03-15T09:01:23.800Z,2.55
2019-03-15T09:03:50.376Z,4.95
2019-03-15T09:06:17.749Z,10.80
2019-03-15T09:08:45.084Z,1.87
2019-03-15T09:11:12.121Z,2.98
2019-03-15T09:13:39.162Z,2.02
2019-03-15T09:16:06.556Z,6.42
2019-03-15T09:18:34.272Z,2.37
2019-03-15T09:21:01.314Z,2.37
2019-03-15T09:23:28.707Z,1.77
2019-03-15T09:25:56.068Z,4.85
2019-03-15T09:28:23.118Z,4.53
2019-03-15T09:30:50.670Z,3.15
2019-03-15T09:33:17.718Z,2.33
2019-03-15T09:35:44.749Z,3.67
2019-03-15T09:38:12.122Z,3.05
2019-03-15T09:40:39.482Z,3.12
2019-03-15T09:43:06.512Z,1.77
2019-03-15T09:45:33.560Z,3.72
2019-03-15T09:48:00.587Z,3.45
2019-03-15T09:50:34.215Z,3.50
2019-03-15T09:52:56.661Z,2.95
2019-03-15T09:55:32.845Z,2.92
2019-03-15T09:57:52.745Z,1.87
2019-03-15T10:00:19.798Z,2.58
2019-03-15T10:02:46.898Z,1.85
2019-03-15T10:05:13.984Z,4.75
2019-03-15T10:07:43.438Z,5.17
2019-03-15T10:10:13.802Z,3.15
2019-03-15T10:12:38.745Z,3.40
2019-03-15T10:15:07.956Z,4.97
2019-03-15T10:17:34.828Z,3.42
2019-03-15T10:20:01.890Z,4.15
2019-03-15T10:22:28.899Z,3.60
2019-03-15T10:24:55.944Z,1.47
2019-03-15T10:27:22.991Z,1.85
2019-03-15T10:29:50.016Z,2.08
2019-03-15T10:32:17.314Z,2.45
2019-03-15T10:34:44.362Z,3.58
2019-03-15T10:37:11.389Z,2.55
2019-03-15T10:39:38.437Z,2.70
2019-03-15T10:42:05.468Z,2.65
2019-03-15T10:44:32.518Z,1.65
2019-03-15T10:46:59.549Z,1.85
2019-03-15T10:49:26.960Z,2.60
2019-03-15T10:51:53.989Z,2.40
2019-03-15T10:54:21.361Z,2.45
2019-03-15T10:56:48.462Z,1.85
2019-03-15T10:59:15.863Z,1.02
2019-03-15T11:01:42.895Z,1.17
2019-03-15T11:04:10.301Z,1.85
2019-03-15T11:06:37.621Z,1.02
2019-03-15T11:09:04.653Z,1.02
2019-03-15T11:11:31.700Z,2.87
2019-03-15T11:13:59.071Z,1.65
2019-03-15T11:16:26.430Z,1.75
2019-03-15T11:18:53.460Z,2.08
2019-03-15T11:21:20.508Z,1.90
2019-03-15T11:23:47.539Z,2.12
2019-03-15T11:26:14.923Z,1.35
2019-03-15T11:28:42.296Z,1.57
2019-03-15T11:31:10.767Z,2.00
2019-03-15T11:33:37.797Z,1.40
2019-03-15T11:36:05.809Z,1.45
2019-03-15T11:38:33.137Z,1.85
2019-03-15T11:41:00.488Z,3.15
2019-03-15T11:43:27.519Z,1.27
2019-03-15T11:45:54.894Z,1.35
2019-03-15T11:48:22.268Z,1.30
2019-03-15T11:50:49.311Z,1.98
2019-03-15T11:53:18.945Z,1.20
2019-03-15T11:55:45.341Z,1.12
2019-03-15T11:58:12.376Z,1.35
2019-03-15T12:00:39.425Z,1.17
2019-03-15T12:03:06.707Z,0.90
2019-03-15T12:05:33.761Z,0.82
2019-03-15T12:08:12.685Z,1.07
2019-03-15T12:10:39.732Z,0.78
2019-03-15T12:13:06.764Z,0.80
2019-03-15T12:15:36.319Z,0.68
2019-03-15T12:18:02.899Z,0.70
2019-03-15T12:20:30.256Z,0.78
2019-03-15T12:22:57.287Z,1.67
2019-03-15T12:25:24.663Z,0.65
2019-03-15T12:27:52.018Z,0.88
2019-03-15T12:30:19.059Z,0.90
2019-03-15T12:32:46.098Z,0.80
2019-03-15T12:35:13.385Z,0.80
2019-03-15T12:37:40.419Z,0.70
2019-03-15T12:40:07.461Z,0.90
2019-03-15T12:42:34.811Z,0.80
2019-03-15T12:45:01.875Z,0.80
2019-03-15T12:47:28.889Z,1.15
2019-03-15T12:49:55.937Z,1.10
2019-03-15T12:52:23.315Z,1.47
2019-03-15T12:54:50.361Z,1.72
2019-03-15T12:57:17.713Z,2.35
2019-03-15T12:59:44.982Z,1.85
2019-03-15T13:02:12.325Z,4.60
2019-03-15T13:04:39.356Z,4.65
2019-03-15T13:07:06.400Z,1.50
2019-03-15T13:09:33.436Z,1.75
2019-03-15T13:12:00.819Z,2.00
2019-03-15T13:14:28.100Z,1.82
2019-03-15T13:16:55.428Z,2.08
2019-03-15T13:19:22.804Z,1.17
2019-03-15T13:21:49.852Z,2.22
2019-03-15T13:24:16.880Z,2.70
2019-03-15T13:26:44.256Z,1.52
2019-03-15T13:29:11.589Z,1.70
2019-03-15T13:31:38.637Z,1.77
2019-03-15T13:34:05.996Z,2.77
2019-03-15T13:36:33.043Z,2.00
2019-03-15T13:39:00.077Z,2.42
2019-03-15T13:41:27.446Z,1.95
2019-03-15T13:43:54.901Z,1.90
2019-03-15T13:46:22.257Z,1.65
2019-03-15T13:48:49.715Z,4.75
2019-03-15T13:51:16.765Z,2.15
2019-03-15T13:53:43.797Z,3.30
2019-03-15T13:56:11.168Z,2.87
2019-03-15T13:58:38.543Z,3.10
2019-03-15T14:01:05.595Z,5.35
2019-03-15T14:03:32.623Z,3.22
2019-03-15T14:05:59.972Z,2.75
2019-03-15T14:08:27.328Z,3.58
2019-03-15T14:10:54.706Z,2.47
2019-03-15T14:13:22.058Z,2.02
2019-03-15T14:15:49.365Z,6.17
2019-03-15T14:18:16.658Z,1.70
2019-03-15T14:20:43.708Z,2.47
2019-03-15T14:23:10.986Z,2.80
2019-03-15T14:25:39.104Z,1.47
2019-03-15T14:28:06.474Z,1.55
2019-03-15T14:30:33.503Z,1.72
2019-03-15T14:33:00.883Z,1.72
2019-03-15T14:35:27.922Z,3.83
2019-03-15T14:37:55.004Z,2.00
2019-03-15T14:40:22.103Z,2.65
2019-03-15T14:42:50.271Z,1.40
2019-03-15T14:45:17.596Z,2.55
2019-03-15T14:47:45.987Z,1.25
2019-03-15T14:50:13.291Z,1.82
2019-03-15T14:52:40.436Z,1.35
2019-03-15T14:55:07.437Z,2.25
2019-03-15T14:57:35.608Z,1.50
2019-03-15T15:00:02.588Z,1.40
2019-03-15T15:02:30.003Z,1.07
2019-03-15T15:04:57.027Z,1.25
2019-03-15T15:07:24.375Z,1.52
2019-03-15T15:09:52.227Z,2.02
2019-03-15T15:12:19.788Z,0.90
2019-03-15T15:14:46.825Z,1.10
2019-03-15T15:17:14.192Z,1.42
2019-03-15T15:19:41.563Z,1.30
2019-03-15T15:22:08.613Z,1.40
2019-03-15T15:24:35.967Z,0.95
2019-03-15T15:27:03.304Z,1.07
2019-03-15T15:29:30.335Z,0.80
2019-03-15T15:31:57.382Z,0.88
2019-03-15T15:34:24.409Z,0.90
2019-03-15T15:36:51.453Z,1.95
2019-03-15T15:39:18.764Z,0.72
2019-03-15T15:41:46.104Z,0.90
2019-03-15T15:44:13.136Z,0.80
2019-03-15T15:46:40.508Z,0.80
2019-03-15T15:49:07.883Z,0.70
2019-03-15T15:51:34.931Z,0.60
2019-03-15T15:54:01.959Z,2.67
2019-03-15T15:56:29.009Z,1.07
2019-03-15T15:58:56.359Z,0.60
2019-03-15T16:01:23.739Z,0.62
2019-03-15T16:06:32.169Z,1.40
2019-03-15T16:08:59.203Z,0.55
2019-03-15T16:11:26.551Z,1.30
2019-03-15T16:13:53.600Z,1.45
2019-03-15T16:16:20.656Z,0.40
2019-03-15T16:18:48.070Z,0.80
2019-03-15T16:21:15.492Z,0.45
2019-03-15T16:23:42.541Z,0.50
2019-03-15T16:26:09.863Z,0.62
2019-03-15T16:28:36.935Z,0.40
2019-03-15T16:31:03.965Z,1.20
2019-03-15T16:33:31.467Z,0.55
2019-03-15T16:35:58.447Z,0.80
2019-03-15T16:38:25.492Z,0.53
2019-03-15T16:40:52.868Z,0.95
2019-03-15T16:43:22.191Z,0.60
2019-03-15T16:46:07.805Z,0.65
2019-03-15T16:48:35.236Z,0.50
2019-03-15T16:51:19.721Z,1.00
2019-03-15T16:56:32.683Z,1.57
2019-03-15T17:04:06.650Z,1.52
2019-03-15T17:06:41.924Z,2.30
2019-03-15T17:09:10.102Z,1.75
2019-03-15T17:11:48.228Z,4.00
2019-03-15T17:16:54.298Z,39.03
2019-03-15T17:19:37.716Z,1.67
2019-03-15T17:22:04.989Z,1.00
2019-03-15T17:24:36.415Z,2.77
2019-03-15T17:27:04.591Z,1.25
2019-03-15T17:29:32.778Z,9.33
2019-03-15T17:32:01.959Z,2.05
2019-03-15T17:39:34.807Z,6.78
2019-03-15T17:42:03.059Z,1.80
2019-03-15T17:44:30.589Z,4.62
2019-03-15T17:47:01.855Z,2.05
2019-03-15T17:49:34.159Z,0.60
2019-03-15T17:52:02.190Z,3.20
2019-03-15T17:54:31.417Z,2.15
2019-03-15T17:57:01.619Z,0.82
2019-03-15T17:59:33.707Z,0.85
2019-03-15T18:02:03.134Z,1.65
2019-03-15T18:04:33.844Z,1.92
2019-03-15T18:10:05.273Z,0.70
2019-03-15T18:12:48.737Z,0.75
2019-03-15T18:15:16.260Z,3.00
2019-03-15T18:23:09.810Z,0.60
2019-03-15T18:25:39.276Z,0.70
2019-03-15T18:33:20.221Z,0.93
2019-03-15T18:35:48.383Z,4.03
2019-03-15T18:38:29.857Z,1.10
2019-03-15T18:40:57.030Z,1.72
2019-03-15T18:43:25.203Z,1.00
2019-03-15T18:45:53.383Z,1.50
2019-03-15T18:48:20.609Z,0.68
2019-03-15T18:50:47.783Z,1.80
2019-03-15T18:53:30.277Z,2.05
2019-03-15T18:58:39.542Z,1.00
2019-03-15T19:01:06.797Z,3.60
2019-03-15T19:03:35.207Z,8.93
2019-03-15T19:06:06.070Z,1.80
2019-03-15T19:08:33.422Z,2.10
2019-03-15T19:16:20.354Z,1.47
2019-03-15T19:18:45.916Z,4.87
2019-03-15T19:21:16.261Z,4.53
2019-03-15T19:26:33.775Z,0.98
2019-03-15T19:29:04.217Z,2.72
2019-03-15T19:31:31.479Z,2.17
2019-03-15T19:34:08.843Z,2.70
2019-03-15T19:41:54.656Z,5.40
2019-03-15T19:44:24.066Z,1.17
2019-03-15T19:49:24.643Z,2.47
2019-03-15T19:51:52.156Z,1.20
2019-03-15T19:54:20.369Z,0.50
2019-03-15T19:56:49.672Z,0.62
2019-03-15T19:59:32.656Z,0.70
2019-03-15T20:07:19.402Z,1.45
2019-03-15T20:09:46.753Z,1.32
2019-03-15T20:12:20.281Z,0.60
2019-03-15T20:14:49.533Z,1.02
2019-03-15T20:17:16.752Z,1.47
2019-03-15T20:19:43.984Z,0.70
2019-03-15T20:22:16.351Z,1.77
2019-03-15T20:24:45.660Z,1.10
2019-03-15T20:32:18.861Z,1.12
2019-03-15T20:34:52.867Z,1.72
2019-03-15T20:37:20.345Z,1.77
2019-03-15T20:39:49.561Z,2.17
2019-03-15T20:42:17.298Z,2.05
2019-03-15T20:44:45.594Z,1.65
2019-03-15T20:47:13.887Z,2.58
2019-03-15T20:49:46.421Z,1.22
2019-03-15T20:54:49.959Z,1.55
2019-03-15T20:57:17.137Z,1.10
2019-03-15T20:59:44.368Z,0.80
2019-03-15T21:02:15.839Z,0.95
2019-03-15T21:04:49.936Z,0.55
2019-03-15T21:09:51.085Z,1.20
2019-03-15T21:12:22.260Z,1.67
2019-03-15T21:14:49.493Z,0.60
2019-03-15T21:17:21.584Z,1.02
2019-03-15T21:19:49.731Z,0.50
2019-03-15T21:22:23.308Z,1.52
2019-03-15T21:24:50.479Z,0.88
2019-03-15T21:29:53.917Z,2.37
2019-03-15T21:32:21.337Z,1.47
2019-03-15T21:35:04.656Z,1.10
2019-03-15T21:37:32.220Z,0.70
2019-03-15T21:40:00.422Z,0.50
2019-03-15T21:45:17.787Z,1.12
2019-03-15T21:47:46.213Z,0.90
2019-03-15T21:50:15.440Z,0.60
2019-03-15T21:52:42.711Z,0.80
2019-03-15T21:55:16.713Z,0.68
2019-03-15T22:00:19.242Z,0.70
2019-03-15T22:02:46.835Z,0.72
2019-03-15T22:05:19.233Z,1.15
2019-03-15T22:07:50.718Z,0.62
2019-03-15T22:10:17.753Z,0.65
2019-03-15T22:15:23.471Z,1.85
2019-03-15T22:17:50.861Z,0.60
2019-03-15T22:23:09.240Z,3.15
2019-03-15T22:28:16.961Z,0.80
2019-03-15T22:30:52.173Z,0.70
2019-03-15T22:35:53.841Z,0.70
2019-03-15T22:38:26.484Z,0.70
2019-03-15T22:40:50.920Z,0.80
2019-03-15T22:45:52.195Z,1.12
2019-03-15T22:48:23.705Z,0.78
2019-03-15T22:50:51.460Z,0.70
2019-03-15T22:53:21.054Z,0.60
2019-03-15T22:55:52.398Z,1.13
2019-03-15T22:58:21.984Z,0.40
2019-03-15T23:00:50.460Z,0.60
2019-03-15T23:05:54.390Z,0.42
2019-03-15T23:08:21.698Z,0.40
2019-03-15T23:10:48.855Z,1.47
2019-03-15T23:13:16.052Z,2.27
2019-03-15T23:15:50.968Z,0.50
2019-03-15T23:18:20.310Z,0.40
2019-03-15T23:23:48.743Z,0.65
2019-03-15T23:26:24.718Z,0.50
2019-03-15T23:28:52.091Z,0.72
2019-03-15T23:31:26.189Z,0.30
2019-03-15T23:33:54.637Z,0.40
2019-03-15T23:36:21.935Z,0.50
2019-03-15T23:38:52.939Z,0.50
2019-03-15T23:41:20.209Z,0.62
2019-03-15T23:43:48.170Z,0.42
2019-03-15T23:46:15.530Z,0.47
2019-03-15T23:48:42.574Z,3.30
2019-03-15T23:51:09.913Z,0.50
2019-03-15T23:53:36.965Z,0.50
2019-03-15T23:56:04.243Z,0.40
2019-03-15T23:58:33.718Z,0.42
